Aviation Digital Data Service (ADDS)

Output produced by TAFs form (1738 UTC 21 April 2018)
found at http://aviationweather.gov/adds/tafs/
 
RJFO 211300Z VRB01KT CAVOK 16/14 Q1020
TAF RJFO 211705Z 2118/2300 13005KT 9999 FEW030